sensor_id;sensor_type;location;lat;lon;timestamp;pressure;altitude;pressure_sealevel;temperature;humidity
23899;BME280;20544;50.018;20.010;2023-03-15T00:00:31;97355.44;;;10.15;100.00
23899;BME280;20544;50.018;20.010;2023-03-15T00:03:52;97357.74;;;10.04;100.00
23899;BME280;20544;50.018;20.010;2023-03-15T00:07:09;97376.67;;;10.08;100.00
23899;BME280;20544;50.018;20.010;2023-03-15T00:10:26;97379.78;;;9.98;100.00
23899;BME280;20544;50.018;20.010;2023-03-15T00:13:43;97403.45;;;9.86;100.00
23899;BME280;20544;50.018;20.010;2023-03-15T00:16:59;97423.67;;;9.74;100.00
23899;BME280;20544;50.018;20.010;2023-03-15T00:20:16;97434.69;;;9.64;100.00
23899;BME280;20544;50.018;20.010;2023-03-15T00:23:33;97443.49;;;9.51;100.00
23899;BME280;20544;50.018;20.010;2023-03-15T00:26:49;97460.81;;;9.41;100.00
23899;BME280;20544;50.018;20.010;2023-03-15T00:30:07;97489.94;;;9.20;100.00
23899;BME280;20544;50.018;20.010;2023-03-15T00:33:24;97497.47;;;9.17;100.00
23899;BME280;20544;50.018;20.010;2023-03-15T00:36:42;97508.45;;;9.07;100.00
23899;BME280;20544;50.018;20.010;2023-03-15T00:40:00;97519.81;;;8.74;100.00
23899;BME280;20544;50.018;20.010;2023-03-15T00:43:17;97546.21;;;8.61;100.00
23899;BME280;20544;50.018;20.010;2023-03-15T00:46:34;97553.41;;;8.32;100.00
23899;BME280;20544;50.018;20.010;2023-03-15T00:49:51;97561.69;;;8.22;100.00
23899;BME280;20544;50.018;20.010;2023-03-15T00:53:07;97572.79;;;8.04;100.00
23899;BME280;20544;50.018;20.010;2023-03-15T00:56:25;97583.70;;;7.94;100.00
23899;BME280;20544;50.018;20.010;2023-03-15T00:59:42;97588.95;;;7.59;100.00
23899;BME280;20544;50.018;20.010;2023-03-15T01:03:00;97606.06;;;7.41;100.00
23899;BME280;20544;50.018;20.010;2023-03-15T01:06:18;97613.34;;;7.39;100.00
23899;BME280;20544;50.018;20.010;2023-03-15T01:09:37;97624.70;;;7.40;100.00
23899;BME280;20544;50.018;20.010;2023-03-15T01:12:55;97654.61;;;7.25;100.00
23899;BME280;20544;50.018;20.010;2023-03-15T01:16:13;97660.38;;;7.14;100.00
23899;BME280;20544;50.018;20.010;2023-03-15T01:19:29;97657.05;;;7.05;100.00
23899;BME280;20544;50.018;20.010;2023-03-15T01:22:46;97657.25;;;6.89;100.00
23899;BME280;20544;50.018;20.010;2023-03-15T01:26:04;97668.48;;;6.61;100.00
23899;BME280;20544;50.018;20.010;2023-03-15T01:29:21;97674.41;;;6.33;100.00
23899;BME280;20544;50.018;20.010;2023-03-15T01:32:37;97684.22;;;6.54;100.00
23899;BME280;20544;50.018;20.010;2023-03-15T01:36:01;97697.73;;;6.51;100.00
23899;BME280;20544;50.018;20.010;2023-03-15T01:39:21;97716.83;;;6.53;100.00
23899;BME280;20544;50.018;20.010;2023-03-15T01:46:22;97725.25;;;6.34;100.00
23899;BME280;20544;50.018;20.010;2023-03-15T01:49:55;97734.06;;;6.26;100.00
23899;BME280;20544;50.018;20.010;2023-03-15T01:53:14;97730.81;;;6.01;100.00
23899;BME280;20544;50.018;20.010;2023-03-15T01:56:32;97740.63;;;6.07;100.00
23899;BME280;20544;50.018;20.010;2023-03-15T01:59:53;97747.65;;;5.91;100.00
23899;BME280;20544;50.018;20.010;2023-03-15T02:03:17;97751.74;;;5.94;100.00
23899;BME280;20544;50.018;20.010;2023-03-15T02:06:39;97748.17;;;5.87;100.00
23899;BME280;20544;50.018;20.010;2023-03-15T02:09:58;97782.28;;;5.80;100.00
23899;BME280;20544;50.018;20.010;2023-03-15T02:13:19;97791.56;;;5.67;100.00
23899;BME280;20544;50.018;20.010;2023-03-15T02:16:38;97804.07;;;5.65;100.00
23899;BME280;20544;50.018;20.010;2023-03-15T02:19:59;97809.29;;;5.74;100.00
23899;BME280;20544;50.018;20.010;2023-03-15T02:23:19;97821.45;;;5.75;100.00
23899;BME280;20544;50.018;20.010;2023-03-15T02:26:39;97825.77;;;5.67;100.00
23899;BME280;20544;50.018;20.010;2023-03-15T02:29:57;97817.98;;;5.51;100.00
23899;BME280;20544;50.018;20.010;2023-03-15T02:33:18;97821.51;;;5.35;100.00
23899;BME280;20544;50.018;20.010;2023-03-15T02:36:37;97823.95;;;5.37;100.00
23899;BME280;20544;50.018;20.010;2023-03-15T02:39:53;97831.55;;;5.31;100.00
23899;BME280;20544;50.018;20.010;2023-03-15T02:43:12;97829.77;;;5.24;100.00
23899;BME280;20544;50.018;20.010;2023-03-15T02:46:31;97828.23;;;5.38;100.00
23899;BME280;20544;50.018;20.010;2023-03-15T02:49:50;97834.30;;;5.38;100.00
23899;BME280;20544;50.018;20.010;2023-03-15T02:53:07;97852.56;;;5.40;100.00
23899;BME280;20544;50.018;20.010;2023-03-15T02:56:23;97858.02;;;5.30;100.00
23899;BME280;20544;50.018;20.010;2023-03-15T02:59:41;97876.92;;;5.25;100.00
23899;BME280;20544;50.018;20.010;2023-03-15T03:02:59;97878.39;;;5.28;100.00
23899;BME280;20544;50.018;20.010;2023-03-15T03:06:17;97892.20;;;5.30;100.00
23899;BME280;20544;50.018;20.010;2023-03-15T03:09:33;97899.92;;;5.23;100.00
23899;BME280;20544;50.018;20.010;2023-03-15T03:12:51;97904.88;;;5.18;100.00
23899;BME280;20544;50.018;20.010;2023-03-15T03:16:10;97908.21;;;5.04;100.00
23899;BME280;20544;50.018;20.010;2023-03-15T03:19:26;97902.96;;;4.95;100.00
23899;BME280;20544;50.018;20.010;2023-03-15T03:22:43;97904.29;;;4.91;100.00
23899;BME280;20544;50.018;20.010;2023-03-15T03:25:59;97903.63;;;4.89;100.00
23899;BME280;20544;50.018;20.010;2023-03-15T03:29:16;97914.13;;;4.89;100.00
23899;BME280;20544;50.018;20.010;2023-03-15T03:32:32;97924.82;;;4.88;100.00
23899;BME280;20544;50.018;20.010;2023-03-15T03:35:50;97912.66;;;4.95;100.00
23899;BME280;20544;50.018;20.010;2023-03-15T03:39:06;97900.34;;;4.87;100.00
23899;BME280;20544;50.018;20.010;2023-03-15T03:42:23;97910.87;;;4.70;100.00
23899;BME280;20544;50.018;20.010;2023-03-15T03:45:39;97920.72;;;4.77;100.00
23899;BME280;20544;50.018;20.010;2023-03-15T03:48:56;97932.88;;;4.78;100.00
23899;BME280;20544;50.018;20.010;2023-03-15T03:52:13;97924.81;;;4.79;100.00
23899;BME280;20544;50.018;20.010;2023-03-15T03:55:31;97934.67;;;4.85;100.00
23899;BME280;20544;50.018;20.010;2023-03-15T03:58:47;97935.67;;;4.76;100.00
23899;BME280;20544;50.018;20.010;2023-03-15T04:02:05;97939.60;;;4.80;100.00
23899;BME280;20544;50.018;20.010;2023-03-15T04:05:23;97945.03;;;4.79;100.00
23899;BME280;20544;50.018;20.010;2023-03-15T04:08:40;97955.55;;;4.62;100.00
23899;BME280;20544;50.018;20.010;2023-03-15T04:11:58;97967.68;;;4.72;100.00
23899;BME280;20544;50.018;20.010;2023-03-15T04:15:16;97971.77;;;4.66;100.00
23899;BME280;20544;50.018;20.010;2023-03-15T04:18:33;97973.91;;;4.70;100.00
23899;BME280;20544;50.018;20.010;2023-03-15T04:21:50;97961.76;;;4.69;100.00
23899;BME280;20544;50.018;20.010;2023-03-15T04:25:11;97968.49;;;4.72;100.00
23899;BME280;20544;50.018;20.010;2023-03-15T04:28:41;97972.95;;;4.80;100.00
23899;BME280;20544;50.018;20.010;2023-03-15T04:32:15;97978.02;;;4.73;100.00
23899;BME280;20544;50.018;20.010;2023-03-15T04:35:49;97987.06;;;4.62;100.00
23899;BME280;20544;50.018;20.010;2023-03-15T04:39:11;97983.92;;;4.50;100.00
23899;BME280;20544;50.018;20.010;2023-03-15T04:42:27;97979.47;;;4.51;100.00
23899;BME280;20544;50.018;20.010;2023-03-15T05:05:39;98016.89;;;4.45;100.00
23899;BME280;20544;50.018;20.010;2023-03-15T05:09:34;98014.40;;;4.27;100.00
23899;BME280;20544;50.018;20.010;2023-03-15T05:13:19;98031.13;;;4.26;100.00
23899;BME280;20544;50.018;20.010;2023-03-15T05:17:16;98042.47;;;4.34;100.00
23899;BME280;20544;50.018;20.010;2023-03-15T05:20:33;98044.30;;;4.42;100.00
23899;BME280;20544;50.018;20.010;2023-03-15T05:23:51;98044.48;;;4.49;100.00
23899;BME280;20544;50.018;20.010;2023-03-15T05:27:15;98052.67;;;4.46;100.00
23899;BME280;20544;50.018;20.010;2023-03-15T05:30:33;98059.06;;;4.43;100.00
23899;BME280;20544;50.018;20.010;2023-03-15T05:33:55;98066.57;;;4.30;100.00
23899;BME280;20544;50.018;20.010;2023-03-15T05:37:20;98080.41;;;4.40;100.00
23899;BME280;20544;50.018;20.010;2023-03-15T05:40:54;98080.06;;;4.35;100.00
23899;BME280;20544;50.018;20.010;2023-03-15T05:44:27;98091.72;;;4.41;100.00
23899;BME280;20544;50.018;20.010;2023-03-15T05:47:47;98101.38;;;4.32;100.00
23899;BME280;20544;50.018;20.010;2023-03-15T05:51:06;98106.67;;;4.40;100.00
23899;BME280;20544;50.018;20.010;2023-03-15T05:54:27;98109.25;;;4.32;100.00
23899;BME280;20544;50.018;20.010;2023-03-15T05:57:43;98111.92;;;4.40;100.00
23899;BME280;20544;50.018;20.010;2023-03-15T06:01:17;98122.56;;;4.38;100.00
23899;BME280;20544;50.018;20.010;2023-03-15T06:04:37;98130.09;;;4.33;100.00
23899;BME280;20544;50.018;20.010;2023-03-15T06:08:08;98134.20;;;4.36;100.00
23899;BME280;20544;50.018;20.010;2023-03-15T06:11:26;98134.53;;;4.33;100.00
23899;BME280;20544;50.018;20.010;2023-03-15T06:14:43;98146.98;;;4.31;100.00
23899;BME280;20544;50.018;20.010;2023-03-15T06:17:59;98151.94;;;4.34;100.00
23899;BME280;20544;50.018;20.010;2023-03-15T06:21:16;98153.09;;;4.40;100.00
23899;BME280;20544;50.018;20.010;2023-03-15T06:24:35;98166.56;;;4.45;100.00
23899;BME280;20544;50.018;20.010;2023-03-15T06:27:52;98180.38;;;4.47;100.00
23899;BME280;20544;50.018;20.010;2023-03-15T06:31:10;98176.38;;;4.34;100.00
23899;BME280;20544;50.018;20.010;2023-03-15T06:34:29;98186.44;;;4.47;100.00
23899;BME280;20544;50.018;20.010;2023-03-15T06:37:45;98180.38;;;4.47;100.00
23899;BME280;20544;50.018;20.010;2023-03-15T06:41:02;98188.07;;;4.40;100.00
23899;BME280;20544;50.018;20.010;2023-03-15T06:44:23;98191.51;;;4.41;100.00
23899;BME280;20544;50.018;20.010;2023-03-15T06:47:41;98203.50;;;4.43;100.00
23899;BME280;20544;50.018;20.010;2023-03-15T06:50:57;98191.51;;;4.41;100.00
23899;BME280;20544;50.018;20.010;2023-03-15T06:54:14;98203.83;;;4.40;100.00
23899;BME280;20544;50.018;20.010;2023-03-15T06:57:30;98202.69;;;4.43;100.00
23899;BME280;20544;50.018;20.010;2023-03-15T07:00:47;98209.10;;;4.48;100.00
23899;BME280;20544;50.018;20.010;2023-03-15T07:04:04;98213.22;;;4.51;100.00
23899;BME280;20544;50.018;20.010;2023-03-15T07:07:20;98217.03;;;4.57;100.00
23899;BME280;20544;50.018;20.010;2023-03-15T07:10:36;98226.22;;;4.52;100.00
23899;BME280;20544;50.018;20.010;2023-03-15T07:13:53;98216.95;;;4.40;100.00
23899;BME280;20544;50.018;20.010;2023-03-15T07:17:09;98217.77;;;4.41;100.00
23899;BME280;20544;50.018;20.010;2023-03-15T07:20:26;98219.26;;;4.43;100.00
23899;BME280;20544;50.018;20.010;2023-03-15T07:23:44;98228.22;;;4.59;100.00
23899;BME280;20544;50.018;20.010;2023-03-15T07:27:00;98235.23;;;4.50;100.00
23899;BME280;20544;50.018;20.010;2023-03-15T07:30:19;98237.02;;;4.49;100.00
23899;BME280;20544;50.018;20.010;2023-03-15T07:33:35;98239.80;;;4.48;100.00
23899;BME280;20544;50.018;20.010;2023-03-15T07:36:52;98238.39;;;4.62;100.00
23899;BME280;20544;50.018;20.010;2023-03-15T07:40:11;98246.16;;;4.72;100.00
23899;BME280;20544;50.018;20.010;2023-03-15T07:43:26;98237.60;;;4.69;100.00
23899;BME280;20544;50.018;20.010;2023-03-15T07:46:52;98242.39;;;4.74;100.00
23899;BME280;20544;50.018;20.010;2023-03-15T07:50:10;98246.34;;;4.78;100.00
23899;BME280;20544;50.018;20.010;2023-03-15T07:53:26;98251.58;;;4.70;100.00
23899;BME280;20544;50.018;20.010;2023-03-15T07:56:42;98258.55;;;4.88;100.00
23899;BME280;20544;50.018;20.010;2023-03-15T07:59:58;98266.45;;;4.96;100.00
23899;BME280;20544;50.018;20.010;2023-03-15T08:03:17;98277.64;;;4.98;100.00
23899;BME280;20544;50.018;20.010;2023-03-15T08:06:38;98275.98;;;4.97;100.00
23899;BME280;20544;50.018;20.010;2023-03-15T08:09:56;98281.08;;;4.98;100.00
23899;BME280;20544;50.018;20.010;2023-03-15T08:13:13;98287.85;;;5.01;100.00
23899;BME280;20544;50.018;20.010;2023-03-15T08:16:32;98299.97;;;4.94;100.00
23899;BME280;20544;50.018;20.010;2023-03-15T08:19:48;98296.72;;;5.00;100.00
23899;BME280;20544;50.018;20.010;2023-03-15T08:23:07;98292.44;;;4.99;100.00
23899;BME280;20544;50.018;20.010;2023-03-15T08:26:26;98295.73;;;5.01;100.00
23899;BME280;20544;50.018;20.010;2023-03-15T08:29:42;98301.48;;;5.05;100.00
23899;BME280;20544;50.018;20.010;2023-03-15T08:33:03;98298.72;;;5.06;100.00
23899;BME280;20544;50.018;20.010;2023-03-15T08:36:20;98292.31;;;5.09;100.00
23899;BME280;20544;50.018;20.010;2023-03-15T08:39:38;98299.69;;;5.05;100.00
23899;BME280;20544;50.018;20.010;2023-03-15T08:42:55;98305.80;;;5.14;100.00
23899;BME280;20544;50.018;20.010;2023-03-15T08:46:12;98303.64;;;5.09;100.00
23899;BME280;20544;50.018;20.010;2023-03-15T08:49:29;98305.30;;;5.10;100.00
23899;BME280;20544;50.018;20.010;2023-03-15T08:52:46;98304.50;;;5.18;100.00
23899;BME280;20544;50.018;20.010;2023-03-15T08:56:03;98312.09;;;5.29;100.00
23899;BME280;20544;50.018;20.010;2023-03-15T08:59:20;98313.91;;;5.29;100.00
23899;BME280;20544;50.018;20.010;2023-03-15T09:02:38;98321.20;;;5.51;100.00
23899;BME280;20544;50.018;20.010;2023-03-15T09:05:58;98321.54;;;5.57;100.00
23899;BME280;20544;50.018;20.010;2023-03-15T09:09:15;98320.92;;;5.71;100.00
23899;BME280;20544;50.018;20.010;2023-03-15T09:12:31;98332.46;;;5.78;100.00
23899;BME280;20544;50.018;20.010;2023-03-15T09:15:50;98341.02;;;5.89;100.00
23899;BME280;20544;50.018;20.010;2023-03-15T09:19:06;98340.85;;;5.90;100.00
23899;BME280;20544;50.018;20.010;2023-03-15T09:22:22;98351.39;;;5.82;100.00
23899;BME280;20544;50.018;20.010;2023-03-15T09:25:41;98342.19;;;5.94;100.00
23899;BME280;20544;50.018;20.010;2023-03-15T09:28:57;98354.66;;;5.76;100.00
23899;BME280;20544;50.018;20.010;2023-03-15T09:32:13;98353.17;;;5.81;100.00
23899;BME280;20544;50.018;20.010;2023-03-15T09:35:33;98348.41;;;5.85;100.00
23899;BME280;20544;50.018;20.010;2023-03-15T09:38:49;98359.28;;;5.82;100.00
23899;BME280;20544;50.018;20.010;2023-03-15T09:42:09;98354.35;;;5.87;100.00
23899;BME280;20544;50.018;20.010;2023-03-15T09:45:34;98355.36;;;5.94;100.00
23899;BME280;20544;50.018;20.010;2023-03-15T09:49:00;98353.66;;;5.77;100.00
23899;BME280;20544;50.018;20.010;2023-03-15T09:52:32;98356.14;;;5.78;100.00
23899;BME280;20544;50.018;20.010;2023-03-15T09:55:52;98368.72;;;5.50;100.00
23899;BME280;20544;50.018;20.010;2023-03-15T09:59:12;98362.63;;;5.49;100.00
23899;BME280;20544;50.018;20.010;2023-03-15T10:02:31;98370.05;;;5.54;100.00
23899;BME280;20544;50.018;20.010;2023-03-15T10:05:51;98376.99;;;5.63;100.00
23899;BME280;20544;50.018;20.010;2023-03-15T10:09:14;98372.23;;;5.67;100.00
23899;BME280;20544;50.018;20.010;2023-03-15T10:12:35;98382.39;;;5.62;100.00
23899;BME280;20544;50.018;20.010;2023-03-15T10:16:00;98381.91;;;5.58;100.00
23899;BME280;20544;50.018;20.010;2023-03-15T10:19:30;98385.52;;;5.57;100.00
23899;BME280;20544;50.018;20.010;2023-03-15T10:22:55;98384.25;;;5.70;100.00
23899;BME280;20544;50.018;20.010;2023-03-15T10:26:17;98386.72;;;5.71;100.00
23899;BME280;20544;50.018;20.010;2023-03-15T10:29:44;98389.85;;;5.75;100.00
23899;BME280;20544;50.018;20.010;2023-03-15T10:33:04;98402.20;;;5.82;100.00
23899;BME280;20544;50.018;20.010;2023-03-15T10:36:27;98407.00;;;5.87;100.00
23899;BME280;20544;50.018;20.010;2023-03-15T10:39:46;98403.69;;;5.85;100.00
23899;BME280;20544;50.018;20.010;2023-03-15T10:43:15;98417.36;;;5.89;100.00
23899;BME280;20544;50.018;20.010;2023-03-15T10:46:34;98412.40;;;5.86;100.00
23899;BME280;20544;50.018;20.010;2023-03-15T10:49:50;98417.52;;;5.87;100.00
23899;BME280;20544;50.018;20.010;2023-03-15T10:53:15;98411.62;;;5.93;100.00
23899;BME280;20544;50.018;20.010;2023-03-15T10:56:36;98403.55;;;5.95;100.00
23899;BME280;20544;50.018;20.010;2023-03-15T10:59:59;98408.88;;;6.03;100.00
23899;BME280;20544;50.018;20.010;2023-03-15T11:03:23;98408.03;;;6.03;100.00
23899;BME280;20544;50.018;20.010;2023-03-15T11:06:44;98406.72;;;6.07;100.00
23899;BME280;20544;50.018;20.010;2023-03-15T11:10:04;98414.31;;;6.10;100.00
23899;BME280;20544;50.018;20.010;2023-03-15T11:13:28;98417.92;;;6.09;100.00
23899;BME280;20544;50.018;20.010;2023-03-15T11:16:48;98414.97;;;6.20;100.00
23899;BME280;20544;50.018;20.010;2023-03-15T11:20:18;98415.65;;;6.22;100.00
23899;BME280;20544;50.018;20.010;2023-03-15T11:23:40;98413.69;;;6.24;100.00
23899;BME280;20544;50.018;20.010;2023-03-15T11:27:02;98408.39;;;6.16;100.00
23899;BME280;20544;50.018;20.010;2023-03-15T11:30:26;98408.55;;;6.23;100.00
23899;BME280;20544;50.018;20.010;2023-03-15T11:33:50;98407.55;;;6.15;100.00
23899;BME280;20544;50.018;20.010;2023-03-15T11:37:13;98408.73;;;6.21;100.00
23899;BME280;20544;50.018;20.010;2023-03-15T11:40:36;98411.34;;;6.05;100.00
23899;BME280;20544;50.018;20.010;2023-03-15T11:43:58;98422.52;;;5.98;100.00
23899;BME280;20544;50.018;20.010;2023-03-15T11:47:22;98423.66;;;6.04;100.00
23899;BME280;20544;50.018;20.010;2023-03-15T11:50:41;98428.14;;;6.20;100.00
23899;BME280;20544;50.018;20.010;2023-03-15T11:54:04;98429.65;;;6.31;100.00
23899;BME280;20544;50.018;20.010;2023-03-15T11:57:43;98423.20;;;6.25;100.00
23899;BME280;20544;50.018;20.010;2023-03-15T12:01:04;98425.84;;;6.17;100.00
23899;BME280;20544;50.018;20.010;2023-03-15T12:04:51;98432.45;;;6.29;100.00
23899;BME280;20544;50.018;20.010;2023-03-15T12:08:23;98433.77;;;6.34;100.00
23899;BME280;20544;50.018;20.010;2023-03-15T12:11:57;98429.34;;;6.51;100.00
23899;BME280;20544;50.018;20.010;2023-03-15T12:18:58;98428.17;;;6.61;100.00
23899;BME280;20544;50.018;20.010;2023-03-15T12:22:17;98431.65;;;6.62;100.00
23899;BME280;20544;50.018;20.010;2023-03-15T12:25:35;98433.78;;;6.58;100.00
23899;BME280;20544;50.018;20.010;2023-03-15T12:29:06;98426.55;;;6.60;100.00
23899;BME280;20544;50.018;20.010;2023-03-15T12:32:28;98424.56;;;6.71;100.00
23899;BME280;20544;50.018;20.010;2023-03-15T12:35:44;98428.50;;;6.75;100.00
23899;BME280;20544;50.018;20.010;2023-03-15T12:39:18;98429.67;;;6.56;100.00
23899;BME280;20544;50.018;20.010;2023-03-15T12:54:03;98435.59;;;6.74;100.00
23899;BME280;20544;50.018;20.010;2023-03-15T12:57:25;98434.77;;;6.82;100.00
23899;BME280;20544;50.018;20.010;2023-03-15T13:00:43;98433.78;;;6.83;100.00
23899;BME280;20544;50.018;20.010;2023-03-15T13:04:00;98432.94;;;6.83;100.00
23899;BME280;20544;50.018;20.010;2023-03-15T13:07:26;98436.56;;;6.82;100.00
23899;BME280;20544;50.018;20.010;2023-03-15T13:10:57;98443.34;;;6.76;100.00
23899;BME280;20544;50.018;20.010;2023-03-15T13:14:35;98449.59;;;6.75;100.00
23899;BME280;20544;50.018;20.010;2023-03-15T13:17:55;98438.23;;;6.74;100.00
23899;BME280;20544;50.018;20.010;2023-03-15T13:21:17;98437.24;;;6.67;100.00
23899;BME280;20544;50.018;20.010;2023-03-15T13:24:43;98436.73;;;6.55;100.00
23899;BME280;20544;50.018;20.010;2023-03-15T13:28:07;98438.56;;;6.55;100.00
23899;BME280;20544;50.018;20.010;2023-03-15T13:31:28;98440.36;;;6.62;100.00
23899;BME280;20544;50.018;20.010;2023-03-15T13:34:46;98446.78;;;6.76;100.00
23899;BME280;20544;50.018;20.010;2023-03-15T13:38:19;98455.19;;;6.80;100.00
23899;BME280;20544;50.018;20.010;2023-03-15T13:41:39;98458.31;;;6.84;100.00
23899;BME280;20544;50.018;20.010;2023-03-15T13:45:16;98460.47;;;6.88;100.00
23899;BME280;20544;50.018;20.010;2023-03-15T13:48:34;98468.71;;;6.77;100.00
23899;BME280;20544;50.018;20.010;2023-03-15T13:51:54;98469.70;;;6.76;100.00
23899;BME280;20544;50.018;20.010;2023-03-15T13:55:16;98480.89;;;6.70;100.00
23899;BME280;20544;50.018;20.010;2023-03-15T13:58:37;98482.88;;;6.59;100.00
23899;BME280;20544;50.018;20.010;2023-03-15T14:01:54;98491.42;;;6.61;100.00
23899;BME280;20544;50.018;20.010;2023-03-15T14:05:14;98495.70;;;6.62;100.00
23899;BME280;20544;50.018;20.010;2023-03-15T14:08:34;98493.54;;;6.33;100.00
23899;BME280;20544;50.018;20.010;2023-03-15T14:12:03;98498.16;;;6.47;100.00
23899;BME280;20544;50.018;20.010;2023-03-15T14:15:24;98501.47;;;6.50;100.00
23899;BME280;20544;50.018;20.010;2023-03-15T14:18:44;98503.93;;;6.51;100.00
23899;BME280;20544;50.018;20.010;2023-03-15T14:22:03;98499.33;;;6.53;100.00
23899;BME280;20544;50.018;20.010;2023-03-15T14:25:28;98510.20;;;6.58;100.00
23899;BME280;20544;50.018;20.010;2023-03-15T14:28:54;98503.63;;;6.54;100.00
23899;BME280;20544;50.018;20.010;2023-03-15T14:32:23;98510.02;;;6.52;100.00
23899;BME280;20544;50.018;20.010;2023-03-15T14:35:45;98506.73;;;6.50;100.00
23899;BME280;20544;50.018;20.010;2023-03-15T14:39:02;98499.64;;;6.50;100.00
23899;BME280;20544;50.018;20.010;2023-03-15T14:42:20;98502.28;;;6.50;100.00
23899;BME280;20544;50.018;20.010;2023-03-15T14:45:39;98508.70;;;6.47;100.00
23899;BME280;20544;50.018;20.010;2023-03-15T14:49:00;98505.39;;;6.45;100.00
23899;BME280;20544;50.018;20.010;2023-03-15T14:52:17;98511.47;;;6.38;100.00
23899;BME280;20544;50.018;20.010;2023-03-15T14:55:35;98513.47;;;6.36;100.00
23899;BME280;20544;50.018;20.010;2023-03-15T14:58:52;98519.20;;;6.31;100.00
23899;BME280;20544;50.018;20.010;2023-03-15T15:02:16;98518.56;;;6.37;100.00
23899;BME280;20544;50.018;20.010;2023-03-15T15:05:34;98533.53;;;6.37;100.00
23899;BME280;20544;50.018;20.010;2023-03-15T15:08:53;98542.57;;;6.26;100.00
23899;BME280;20544;50.018;20.010;2023-03-15T15:12:12;98550.98;;;6.29;100.00
23899;BME280;20544;50.018;20.010;2023-03-15T15:15:28;98550.27;;;6.19;100.00
23899;BME280;20544;50.018;20.010;2023-03-15T15:18:46;98545.16;;;6.09;100.00
23899;BME280;20544;50.018;20.010;2023-03-15T15:22:03;98550.72;;;6.06;100.00
23899;BME280;20544;50.018;20.010;2023-03-15T15:25:23;98549.75;;;6.07;100.00
23899;BME280;20544;50.018;20.010;2023-03-15T15:28:39;98557.13;;;6.04;100.00
23899;BME280;20544;50.018;20.010;2023-03-15T15:31:56;98551.87;;;6.04;100.00
23899;BME280;20544;50.018;20.010;2023-03-15T15:35:14;98559.60;;;6.05;100.00
23899;BME280;20544;50.018;20.010;2023-03-15T15:38:33;98554.50;;;6.04;100.00
23899;BME280;20544;50.018;20.010;2023-03-15T15:41:50;98554.16;;;5.98;100.00
23899;BME280;20544;50.018;20.010;2023-03-15T15:45:11;98562.31;;;5.95;100.00
23899;BME280;20544;50.018;20.010;2023-03-15T15:48:28;98560.69;;;5.94;100.00
23899;BME280;20544;50.018;20.010;2023-03-15T15:51:46;98561.67;;;5.93;100.00
23899;BME280;20544;50.018;20.010;2023-03-15T15:55:03;98575.30;;;5.89;100.00
23899;BME280;20544;50.018;20.010;2023-03-15T15:58:21;98570.66;;;5.82;100.00
23899;BME280;20544;50.018;20.010;2023-03-15T16:01:38;98579.60;;;5.63;100.00
23899;BME280;20544;50.018;20.010;2023-03-15T16:04:56;98571.90;;;5.70;100.00
23899;BME280;20544;50.018;20.010;2023-03-15T16:08:15;98583.24;;;5.71;100.00
23899;BME280;20544;50.018;20.010;2023-03-15T16:11:35;98583.05;;;5.64;100.00
23899;BME280;20544;50.018;20.010;2023-03-15T16:14:52;98585.48;;;5.57;100.00
23899;BME280;20544;50.018;20.010;2023-03-15T16:18:13;98587.89;;;5.50;100.00
23899;BME280;20544;50.018;20.010;2023-03-15T16:21:33;98581.29;;;5.46;100.00
23899;BME280;20544;50.018;20.010;2023-03-15T16:24:54;98585.34;;;5.41;100.00
23899;BME280;20544;50.018;20.010;2023-03-15T16:28:12;98590.24;;;5.35;100.00
23899;BME280;20544;50.018;20.010;2023-03-15T16:31:28;98590.92;;;5.38;100.00
23899;BME280;20544;50.018;20.010;2023-03-15T16:34:49;98601.38;;;5.29;100.00
23899;BME280;20544;50.018;20.010;2023-03-15T16:38:14;98607.64;;;5.28;100.00
23899;BME280;20544;50.018;20.010;2023-03-15T16:41:34;98608.13;;;5.32;100.00
23899;BME280;20544;50.018;20.010;2023-03-15T16:44:51;98612.05;;;5.28;100.00
23899;BME280;20544;50.018;20.010;2023-03-15T16:48:07;98615.52;;;5.28;100.00
23899;BME280;20544;50.018;20.010;2023-03-15T16:51:28;98628.28;;;5.23;100.00
23899;BME280;20544;50.018;20.010;2023-03-15T16:54:45;98626.84;;;5.11;100.00
23899;BME280;20544;50.018;20.010;2023-03-15T16:58:03;98629.11;;;5.06;100.00
23899;BME280;20544;50.018;20.010;2023-03-15T17:01:24;98637.52;;;5.09;100.00
23899;BME280;20544;50.018;20.010;2023-03-15T17:04:42;98657.49;;;5.02;100.00
23899;BME280;20544;50.018;20.010;2023-03-15T17:07:59;98663.16;;;5.07;100.00
23899;BME280;20544;50.018;20.010;2023-03-15T17:11:19;98663.75;;;5.01;100.00
23899;BME280;20544;50.018;20.010;2023-03-15T17:14:37;98653.58;;;4.88;100.00
23899;BME280;20544;50.018;20.010;2023-03-15T17:17:54;98665.66;;;4.81;100.00
23899;BME280;20544;50.018;20.010;2023-03-15T17:21:12;98665.32;;;4.66;100.00
23899;BME280;20544;50.018;20.010;2023-03-15T17:24:29;98659.45;;;4.54;100.00
23899;BME280;20544;50.018;20.010;2023-03-15T17:27:47;98657.90;;;4.61;100.00
23899;BME280;20544;50.018;20.010;2023-03-15T17:31:05;98659.84;;;4.59;100.00
23899;BME280;20544;50.018;20.010;2023-03-15T17:34:25;98668.73;;;4.48;100.00
23899;BME280;20544;50.018;20.010;2023-03-15T17:37:42;98678.45;;;4.38;100.00
23899;BME280;20544;50.018;20.010;2023-03-15T17:40:59;98684.52;;;4.38;100.00
23899;BME280;20544;50.018;20.010;2023-03-15T17:44:20;98686.09;;;4.31;100.00
23899;BME280;20544;50.018;20.010;2023-03-15T17:47:36;98686.40;;;4.18;100.00
23899;BME280;20544;50.018;20.010;2023-03-15T17:50:52;98698.14;;;4.24;100.00
23899;BME280;20544;50.018;20.010;2023-03-15T17:54:14;98703.23;;;4.26;100.00
23899;BME280;20544;50.018;20.010;2023-03-15T17:57:33;98701.75;;;4.13;100.00
23899;BME280;20544;50.018;20.010;2023-03-15T18:00:53;98695.14;;;4.09;100.00
23899;BME280;20544;50.018;20.010;2023-03-15T18:04:13;98694.45;;;4.07;100.00